createdAt,value
2023-02-17T00:02:16.006Z,100132.28
2023-02-17T00:04:49.441Z,100128.75
2023-02-17T00:07:16.860Z,100119.16
2023-02-17T00:09:44.359Z,100115.69
2023-02-17T00:12:11.809Z,100105.13
2023-02-17T00:14:42.428Z,100106.84
2023-02-17T00:17:09.845Z,100103.31
2023-02-17T00:19:37.280Z,100105.88
2023-02-17T00:22:05.401Z,100101.56
2023-02-17T00:24:41.374Z,100102.59
2023-02-17T00:27:08.893Z,100113.03
2023-02-17T00:29:36.296Z,100106.91
2023-02-17T00:32:04.297Z,100109.53
2023-02-17T00:34:32.781Z,100114.00
2023-02-17T00:37:00.151Z,100108.84
2023-02-17T00:39:27.849Z,100115.03
2023-02-17T00:41:55.173Z,100109.81
2023-02-17T00:44:25.641Z,100119.44
2023-02-17T00:46:53.166Z,100115.97
2023-02-17T00:49:23.936Z,100118.56
2023-02-17T00:52:02.174Z,100114.22
2023-02-17T00:54:29.754Z,100117.75
2023-02-17T00:56:57.255Z,100122.94
2023-02-17T00:59:24.736Z,100117.75
2023-02-17T01:01:52.169Z,100114.28
2023-02-17T01:04:19.622Z,100123.88
2023-02-17T01:06:47.147Z,100109.09
2023-02-17T01:09:15.450Z,100118.72
2023-02-17T01:11:43.999Z,100114.34
2023-02-17T01:14:13.445Z,100111.75
2023-02-17T01:16:45.086Z,100099.56
2023-02-17T01:19:15.237Z,100098.69
2023-02-17T01:21:42.934Z,100096.94
2023-02-17T01:24:12.549Z,100095.19
2023-02-17T01:26:41.666Z,100101.28
2023-02-17T01:29:09.546Z,100091.66
2023-02-17T01:31:36.950Z,100101.19
2023-02-17T01:34:05.390Z,100102.06
2023-02-17T01:36:33.494Z,100098.59
2023-02-17T01:39:01.045Z,100095.94
2023-02-17T01:41:29.150Z,100108.09
2023-02-17T01:44:20.972Z,100107.28
2023-02-17T01:46:50.769Z,100098.59
2023-02-17T01:49:39.673Z,100100.38
2023-02-17T01:52:24.164Z,100101.28
2023-02-17T01:55:03.870Z,100092.56
2023-02-17T01:57:35.519Z,100085.59
2023-02-17T02:00:04.725Z,100080.38
2023-02-17T02:02:32.748Z,100082.13
2023-02-17T02:05:01.062Z,100086.47
2023-02-17T02:07:32.570Z,100084.75
2023-02-17T02:10:00.869Z,100082.09
2023-02-17T02:12:31.331Z,100072.53
2023-02-17T02:15:10.366Z,100065.56
2023-02-17T02:18:09.269Z,100063.00
2023-02-17T02:21:17.155Z,100053.38
2023-02-17T02:24:02.184Z,100060.31
2023-02-17T02:26:51.002Z,100052.53
2023-02-17T02:29:33.365Z,100055.13
2023-02-17T02:32:27.135Z,100053.38
2023-02-17T02:35:06.666Z,100046.41
2023-02-17T02:37:40.022Z,100035.88
2023-02-17T02:40:09.468Z,100033.25
2023-02-17T02:42:40.500Z,100028.97
2023-02-17T02:45:10.371Z,100027.25
2023-02-17T02:47:44.498Z,100019.28
2023-02-17T02:50:19.385Z,100014.13
2023-02-17T02:53:10.818Z,100025.34
2023-02-17T02:55:53.821Z,100013.16
2023-02-17T02:58:58.990Z,100006.22
2023-02-17T03:01:44.627Z,100013.16
2023-02-17T03:04:20.932Z,99999.13
2023-02-17T03:07:01.535Z,99999.13
2023-02-17T03:09:29.630Z,100000.03
2023-02-17T03:11:58.520Z,100003.50
2023-02-17T03:14:28.899Z,99999.16
2023-02-17T03:16:56.276Z,99993.97
2023-02-17T03:19:25.617Z,99997.38
2023-02-17T03:22:09.593Z,99997.34
2023-02-17T03:24:37.989Z,100005.16
2023-02-17T03:27:05.448Z,100000.00
2023-02-17T03:29:32.957Z,100000.88
2023-02-17T03:32:01.077Z,100001.75
2023-02-17T03:34:28.838Z,99997.44
2023-02-17T03:36:56.313Z,99996.53
2023-02-17T03:39:23.970Z,99995.72
2023-02-17T03:41:53.665Z,99996.66
2023-02-17T03:44:22.190Z,99995.75
2023-02-17T03:46:49.693Z,99991.34
2023-02-17T03:49:18.229Z,99994.03
2023-02-17T03:51:45.663Z,99989.56
2023-02-17T03:54:21.057Z,99983.47
2023-02-17T03:56:48.133Z,99986.00
2023-02-17T03:59:15.714Z,99988.59
2023-02-17T04:01:45.200Z,99981.78
2023-02-17T04:04:12.709Z,99981.66
2023-02-17T04:06:41.161Z,99982.47
2023-02-17T04:09:08.740Z,99995.44
2023-02-17T04:11:36.128Z,99977.19
2023-02-17T04:14:05.636Z,99985.84
2023-02-17T04:16:33.125Z,99986.69
2023-02-17T04:19:00.402Z,99978.03
2023-02-17T04:21:29.056Z,99985.84
2023-02-17T04:23:56.398Z,99985.06
2023-02-17T04:26:25.859Z,99983.38
2023-02-17T04:28:54.666Z,99978.16
2023-02-17T04:31:22.190Z,99978.28
2023-02-17T04:33:55.500Z,99969.47
2023-02-17T04:36:23.418Z,99971.13
2023-02-17T04:38:50.995Z,99970.31
2023-02-17T04:41:18.351Z,99964.19
2023-02-17T04:43:45.348Z,99964.13
2023-02-17T04:46:12.910Z,99957.88
2023-02-17T04:48:40.283Z,99954.41
2023-02-17T04:51:07.898Z,99953.56
2023-02-17T04:53:35.347Z,99948.34
2023-02-17T04:56:04.355Z,99957.94
2023-02-17T04:58:31.760Z,99949.44
2023-02-17T05:01:01.277Z,99954.56
2023-02-17T05:03:28.887Z,99956.41
2023-02-17T05:05:58.595Z,99957.25
2023-02-17T05:08:25.786Z,99954.63
2023-02-17T05:10:55.138Z,99946.63
2023-02-17T05:13:22.634Z,99946.63
2023-02-17T05:15:50.201Z,99937.06
2023-02-17T05:18:18.559Z,99933.69
2023-02-17T05:20:46.059Z,99931.97
2023-02-17T05:23:13.478Z,99926.69
2023-02-17T05:25:41.252Z,99929.41
2023-02-17T05:28:09.597Z,99928.56
2023-02-17T05:30:37.813Z,99922.25
2023-02-17T05:33:05.433Z,99930.16
2023-02-17T05:35:35.656Z,99923.13
2023-02-17T05:38:04.903Z,99925.84
2023-02-17T05:40:32.502Z,99922.47
2023-02-17T05:43:00.879Z,99925.91
2023-02-17T05:45:28.222Z,99917.13
2023-02-17T05:47:55.727Z,99922.50
2023-02-17T05:50:23.220Z,99919.81
2023-02-17T05:52:50.672Z,99917.13
2023-02-17T05:55:18.114Z,99917.00
2023-02-17T05:57:45.600Z,99910.00
2023-02-17T06:00:13.511Z,99906.53
2023-02-17T06:02:40.658Z,99910.00
2023-02-17T06:05:09.418Z,99909.22
2023-02-17T06:07:36.506Z,99906.53
2023-02-17T06:10:04.301Z,99901.34
2023-02-17T06:12:31.868Z,99895.19
2023-02-17T06:14:59.272Z,99893.41
2023-02-17T06:17:27.047Z,99892.50
2023-02-17T06:20:05.393Z,99888.97
2023-02-17T06:22:33.000Z,99883.75
2023-02-17T06:25:00.433Z,99881.00
2023-02-17T06:27:27.879Z,99872.19
2023-02-17T06:29:55.339Z,99872.16
2023-02-17T06:32:23.900Z,99880.91
2023-02-17T06:34:53.219Z,99881.81
2023-02-17T06:37:21.804Z,99879.13
2023-02-17T06:39:49.212Z,99879.03
2023-02-17T06:42:17.117Z,99878.09
2023-02-17T06:44:44.610Z,99883.84
2023-02-17T06:47:12.168Z,99886.03
2023-02-17T06:49:40.849Z,99875.94
2023-02-17T06:52:08.518Z,99886.53
2023-02-17T06:54:35.948Z,99884.13
2023-02-17T06:57:03.553Z,99885.16
2023-02-17T06:59:33.396Z,99893.03
2023-02-17T07:02:02.459Z,99891.28
2023-02-17T07:04:30.025Z,99887.09
2023-02-17T07:06:57.421Z,99892.53
2023-02-17T07:09:24.944Z,99896.94
2023-02-17T07:11:52.046Z,99901.38
2023-02-17T07:14:19.304Z,99899.81
2023-02-17T07:16:46.734Z,99897.97
2023-02-17T07:19:14.315Z,99899.56
2023-02-17T07:21:48.776Z,99890.91
2023-02-17T07:24:17.401Z,99896.16
2023-02-17T07:26:44.949Z,99886.44
2023-02-17T07:29:12.196Z,99883.84
2023-02-17T07:31:39.704Z,99869.84
2023-02-17T07:34:07.116Z,99871.56
2023-02-17T07:36:34.639Z,99870.72
2023-02-17T07:39:04.109Z,99871.63
2023-02-17T07:41:33.813Z,99872.50
2023-02-17T07:44:00.946Z,99869.81
2023-02-17T07:46:28.005Z,99868.94
2023-02-17T07:48:57.283Z,99876.66
2023-02-17T07:51:25.362Z,99870.38
2023-02-17T07:53:52.679Z,99871.28
2023-02-17T07:56:21.908Z,99859.22
2023-02-17T07:58:49.536Z,99858.22
2023-02-17T08:01:22.577Z,99863.28
2023-02-17T08:03:51.195Z,99859.69
2023-02-17T08:06:23.425Z,99861.31
2023-02-17T08:09:20.998Z,99857.66
2023-02-17T08:12:06.518Z,99852.50
2023-02-17T08:14:33.744Z,99853.38
2023-02-17T08:17:02.194Z,99857.66
2023-02-17T08:19:39.641Z,99859.28
2023-02-17T08:22:13.906Z,99855.78
2023-02-17T08:24:41.294Z,99859.19
2023-02-17T08:27:09.759Z,99867.97
2023-02-17T08:29:37.317Z,99859.19
2023-02-17T08:32:05.087Z,99857.34
2023-02-17T08:34:35.512Z,99850.25
2023-02-17T08:37:04.788Z,99854.56
2023-02-17T08:39:33.116Z,99857.97
2023-02-17T08:42:02.188Z,99858.69
2023-02-17T08:44:29.334Z,99849.78
2023-02-17T08:46:57.706Z,99853.25
2023-02-17T08:49:27.204Z,99847.94
2023-02-17T08:51:54.752Z,99841.59
2023-02-17T08:54:22.372Z,99851.09
2023-02-17T08:56:49.710Z,99843.25
2023-02-17T08:59:18.189Z,99844.75
2023-02-17T09:01:45.582Z,99833.19
2023-02-17T09:04:14.928Z,99840.97
2023-02-17T09:06:48.651Z,99842.69
2023-02-17T09:09:18.670Z,99846.19
2023-02-17T09:11:47.112Z,99842.09
2023-02-17T09:14:15.223Z,99838.59
2023-02-17T09:16:42.504Z,99837.69
2023-02-17T09:19:10.163Z,99835.88
2023-02-17T09:21:37.527Z,99832.41
2023-02-17T09:24:05.144Z,99830.63
2023-02-17T09:29:17.776Z,99839.13
2023-02-17T09:31:46.468Z,99843.50
2023-02-17T09:34:15.841Z,99847.84
2023-02-17T09:36:43.475Z,99838.03
2023-02-17T09:39:14.448Z,99844.94
2023-02-17T09:41:55.569Z,99837.19
2023-02-17T09:44:26.491Z,99829.28
2023-02-17T09:47:03.272Z,99830.81
2023-02-17T09:49:39.373Z,99827.28
2023-02-17T09:52:10.680Z,99822.84
2023-02-17T09:54:48.457Z,99826.97
2023-02-17T09:57:21.164Z,99824.22
2023-02-17T10:00:16.950Z,99821.53
2023-02-17T10:02:58.204Z,99824.09
2023-02-17T10:05:34.738Z,99821.59
2023-02-17T10:08:17.613Z,99813.34
2023-02-17T10:11:01.979Z,99809.06
2023-02-17T10:13:32.488Z,99813.28
2023-02-17T10:16:10.569Z,99809.75
2023-02-17T10:18:49.009Z,99807.13
2023-02-17T10:21:25.906Z,99803.53
2023-02-17T10:23:53.199Z,99790.41
2023-02-17T10:26:43.137Z,99784.28
2023-02-17T10:29:43.346Z,99784.09
2023-02-17T10:32:29.134Z,99776.28
2023-02-17T10:35:02.430Z,99776.44
2023-02-17T10:37:38.896Z,99768.44
2023-02-17T10:40:18.463Z,99767.53
2023-02-17T10:42:47.139Z,99754.19
2023-02-17T10:45:32.254Z,99746.13
2023-02-17T10:48:22.636Z,99749.38
2023-02-17T10:50:51.033Z,99743.13
2023-02-17T10:53:23.535Z,99738.53
2023-02-17T10:55:54.788Z,99736.59
2023-02-17T10:58:37.338Z,99730.16
2023-02-17T11:01:07.998Z,99716.69
2023-02-17T11:03:41.770Z,99708.78
2023-02-17T11:06:20.189Z,99712.91
2023-02-17T11:08:52.552Z,99706.50
2023-02-17T11:11:22.837Z,99697.69
2023-02-17T11:14:25.169Z,99706.50
2023-02-17T11:17:00.648Z,99702.00
2023-02-17T11:19:34.742Z,99707.28
2023-02-17T11:22:06.279Z,99700.19
2023-02-17T11:24:35.794Z,99689.56
2023-02-17T11:27:25.598Z,99677.25
2023-02-17T11:30:16.018Z,99676.31
2023-02-17T11:32:43.409Z,99668.19
2023-02-17T11:35:46.776Z,99661.94
2023-02-17T11:38:20.864Z,99663.59
2023-02-17T11:40:59.378Z,99662.72
2023-02-17T11:43:31.221Z,99654.50
2023-02-17T11:46:02.472Z,99654.13
2023-02-17T11:48:54.365Z,99647.34
2023-02-17T11:52:01.166Z,99643.41
2023-02-17T11:54:44.461Z,99648.28
2023-02-17T11:57:17.843Z,99645.22
2023-02-17T12:00:01.749Z,99646.34
2023-02-17T12:02:41.295Z,99640.22
2023-02-17T12:05:23.584Z,99636.44
2023-02-17T12:08:10.849Z,99621.38
2023-02-17T12:11:26.023Z,99625.47
2023-02-17T12:14:22.338Z,99610.72
2023-02-17T12:17:04.113Z,99606.34
2023-02-17T12:19:55.461Z,99605.44
2023-02-17T12:22:49.975Z,99591.16
2023-02-17T12:25:32.079Z,99588.13
2023-02-17T12:28:05.466Z,99588.31
2023-02-17T12:31:01.017Z,99590.53
2023-02-17T12:33:55.243Z,99576.56
2023-02-17T12:36:29.397Z,99566.78
2023-02-17T12:39:21.941Z,99578.16
2023-02-17T12:42:04.640Z,99572.06
2023-02-17T12:44:41.334Z,99568.28
2023-02-17T12:47:38.132Z,99564.31
2023-02-17T12:50:23.199Z,99552.97
2023-02-17T12:52:57.599Z,99537.41
2023-02-17T12:55:48.534Z,99529.25
2023-02-17T12:58:20.482Z,99534.94
2023-02-17T13:00:57.754Z,99527.41
2023-02-17T13:03:31.349Z,99526.50
2023-02-17T13:06:03.060Z,99528.22
2023-02-17T13:08:40.239Z,99534.41
2023-02-17T13:11:14.185Z,99535.16
2023-02-17T13:13:41.371Z,99526.28
2023-02-17T13:16:16.318Z,99524.53
2023-02-17T13:18:46.216Z,99514.72
2023-02-17T13:21:27.776Z,99513.03
2023-02-17T13:24:03.072Z,99507.69
2023-02-17T13:26:45.754Z,99503.00
2023-02-17T13:29:32.426Z,99508.00
2023-02-17T13:32:11.912Z,99503.59
2023-02-17T13:34:43.542Z,99497.78
2023-02-17T13:37:19.416Z,99492.34
2023-02-17T13:39:47.169Z,99485.28
2023-02-17T13:42:54.583Z,99479.97
2023-02-17T13:45:34.074Z,99479.78
2023-02-17T13:48:13.477Z,99478.09
2023-02-17T13:50:50.158Z,99468.38
2023-02-17T13:53:40.135Z,99475.47
2023-02-17T13:56:10.811Z,99472.06
2023-02-17T13:58:42.528Z,99475.38
2023-02-17T14:01:29.158Z,99465.75
2023-02-17T14:03:57.284Z,99458.78
2023-02-17T14:06:33.097Z,99446.25
2023-02-17T14:09:00.563Z,99442.22
2023-02-17T14:11:31.417Z,99446.44
2023-02-17T14:14:00.886Z,99439.94
2023-02-17T14:16:33.822Z,99441.00
2023-02-17T14:19:21.445Z,99435.13
2023-02-17T14:22:06.410Z,99442.00
2023-02-17T14:24:37.183Z,99427.31
2023-02-17T14:27:17.056Z,99412.88
2023-02-17T14:29:46.751Z,99419.19
2023-02-17T14:32:35.501Z,99417.44
2023-02-17T14:35:15.601Z,99412.19
2023-02-17T14:37:43.701Z,99394.63
2023-02-17T14:40:19.549Z,99392.00
2023-02-17T14:42:47.731Z,99371.47
2023-02-17T14:45:16.217Z,99376.06
2023-02-17T14:47:43.988Z,99370.84
2023-02-17T14:50:13.811Z,99360.13
2023-02-17T14:52:49.927Z,99363.06
2023-02-17T14:55:32.345Z,99362.06
2023-02-17T14:58:01.418Z,99356.03
2023-02-17T15:00:29.936Z,99355.19
2023-02-17T15:02:59.145Z,99345.56
2023-02-17T15:05:27.156Z,99333.13
2023-02-17T15:07:54.687Z,99334.06
2023-02-17T15:10:29.403Z,99323.00
2023-02-17T15:12:58.268Z,99318.06
2023-02-17T15:15:26.104Z,99301.28
2023-02-17T15:17:53.835Z,99308.16
2023-02-17T15:20:21.338Z,99313.72
2023-02-17T15:22:53.029Z,99310.44
2023-02-17T15:25:24.760Z,99298.56
2023-02-17T15:27:52.503Z,99301.41
2023-02-17T15:30:21.711Z,99298.94
2023-02-17T15:32:49.791Z,99292.00
2023-02-17T15:35:26.882Z,99294.78
2023-02-17T15:37:55.045Z,99303.50
2023-02-17T15:40:25.772Z,99287.00
2023-02-17T15:42:58.113Z,99278.25
2023-02-17T15:45:26.782Z,99281.81
2023-02-17T15:48:04.802Z,99278.25
2023-02-17T15:50:33.663Z,99275.53
2023-02-17T15:53:01.708Z,99273.81
2023-02-17T15:55:29.699Z,99250.75
2023-02-17T15:58:02.980Z,99259.69
2023-02-17T16:00:36.923Z,99258.94
2023-02-17T16:03:10.868Z,99257.16
2023-02-17T16:05:38.731Z,99248.09
2023-02-17T16:08:06.682Z,99249.81
2023-02-17T16:10:36.099Z,99242.06
2023-02-17T16:13:04.129Z,99229.53
2023-02-17T16:15:33.429Z,99219.09
2023-02-17T16:18:00.874Z,99224.06
2023-02-17T16:20:34.826Z,99221.31
2023-02-17T16:23:04.810Z,99207.13
2023-02-17T16:25:32.619Z,99210.09
2023-02-17T16:28:00.290Z,99214.63
2023-02-17T16:30:32.578Z,99206.16
2023-02-17T16:33:02.346Z,99218.81
2023-02-17T16:35:33.620Z,99201.56
2023-02-17T16:38:10.384Z,99193.81
2023-02-17T16:40:47.552Z,99198.97
2023-02-17T16:43:17.458Z,99202.25
2023-02-17T16:45:59.396Z,99194.91
2023-02-17T16:48:31.325Z,99190.56
2023-02-17T16:51:05.470Z,99194.56
2023-02-17T16:53:39.578Z,99195.88
2023-02-17T16:56:16.797Z,99195.28
2023-02-17T16:58:45.185Z,99198.34
2023-02-17T17:01:14.020Z,99200.50
2023-02-17T17:03:43.867Z,99190.50
2023-02-17T17:06:23.007Z,99206.97
2023-02-17T17:08:51.165Z,99200.94
2023-02-17T17:11:25.349Z,99199.63
2023-02-17T17:13:54.433Z,99200.94
2023-02-17T17:16:33.969Z,99200.28
2023-02-17T17:19:03.438Z,99191.56
2023-02-17T17:21:31.835Z,99187.00
2023-02-17T17:24:04.337Z,99184.44
2023-02-17T17:26:40.502Z,99178.25
2023-02-17T17:29:11.172Z,99177.06
2023-02-17T17:31:40.314Z,99179.94
2023-02-17T17:34:16.804Z,99185.75
2023-02-17T17:36:47.032Z,99179.38
2023-02-17T17:39:17.968Z,99182.56
2023-02-17T17:41:46.485Z,99180.66
2023-02-17T17:44:14.861Z,99189.75
2023-02-17T17:46:43.577Z,99182.97
2023-02-17T17:49:15.506Z,99186.41
2023-02-17T17:51:44.880Z,99184.09
2023-02-17T17:54:14.000Z,99195.81
2023-02-17T17:56:43.660Z,99200.63
2023-02-17T17:59:13.381Z,99183.06
2023-02-17T18:01:42.746Z,99199.81
2023-02-17T18:04:16.952Z,99205.81
2023-02-17T18:06:49.270Z,99217.75
2023-02-17T18:09:31.334Z,99204.16
2023-02-17T18:12:08.211Z,99202.72
2023-02-17T18:14:39.936Z,99205.00
2023-02-17T18:17:13.109Z,99201.16
2023-02-17T18:19:44.349Z,99197.28
2023-02-17T18:22:13.154Z,99205.16
2023-02-17T18:24:42.302Z,99218.84
2023-02-17T18:27:10.779Z,99213.44
2023-02-17T18:29:40.248Z,99211.00
2023-02-17T18:32:08.942Z,99209.50
2023-02-17T18:34:37.774Z,99194.63
2023-02-17T18:37:07.916Z,99207.50
2023-02-17T18:39:37.214Z,99198.72
2023-02-17T18:42:13.299Z,99204.44
2023-02-17T18:44:42.489Z,99208.16
2023-02-17T18:47:11.786Z,99210.78
2023-02-17T18:49:40.549Z,99204.31
2023-02-17T18:52:12.281Z,99199.41
2023-02-17T18:54:45.649Z,99193.72
2023-02-17T18:57:14.270Z,99188.50
2023-02-17T18:59:42.674Z,99202.00
2023-02-17T19:02:13.254Z,99187.16
2023-02-17T19:04:46.563Z,99189.34
2023-02-17T19:07:14.908Z,99155.00
2023-02-17T19:09:44.326Z,99169.63
2023-02-17T19:12:15.717Z,99162.13
2023-02-17T19:14:45.575Z,99165.56
2023-02-17T19:17:19.978Z,99164.72
2023-02-17T19:19:47.815Z,99170.97
2023-02-17T19:22:17.364Z,99172.16
2023-02-17T19:24:46.404Z,99164.59
2023-02-17T19:27:16.097Z,99159.84
2023-02-17T19:29:44.348Z,99165.47
2023-02-17T19:32:13.149Z,99165.41
2023-02-17T19:34:48.553Z,99153.25
2023-02-17T19:37:16.673Z,99170.03
2023-02-17T19:39:45.846Z,99163.66
2023-02-17T19:42:19.807Z,99177.06
2023-02-17T19:44:48.466Z,99170.22
2023-02-17T19:47:15.996Z,99161.34
2023-02-17T19:49:44.087Z,99164.47
2023-02-17T19:52:13.388Z,99175.91
2023-02-17T19:54:43.828Z,99158.16
2023-02-17T19:57:11.734Z,99149.44
2023-02-17T19:59:48.812Z,99166.63
2023-02-17T20:02:17.612Z,99173.34
2023-02-17T20:04:46.584Z,99187.41
2023-02-17T20:07:15.495Z,99179.84
2023-02-17T20:09:43.592Z,99177.63
2023-02-17T20:12:13.347Z,99176.59
2023-02-17T20:14:43.682Z,99151.19
2023-02-17T20:17:12.615Z,99166.03
2023-02-17T20:19:43.274Z,99175.84
2023-02-17T20:22:12.680Z,99162.00
2023-02-17T20:24:42.982Z,99166.88
2023-02-17T20:27:14.403Z,99164.16
2023-02-17T20:29:43.891Z,99152.16
2023-02-17T20:32:18.199Z,99156.53
2023-02-17T20:34:47.710Z,99172.41
2023-02-17T20:37:17.776Z,99166.94
2023-02-17T20:39:46.563Z,99166.25
2023-02-17T20:42:20.364Z,99147.81
2023-02-17T20:44:51.068Z,99169.59
2023-02-17T20:47:21.996Z,99155.19
2023-02-17T20:49:59.473Z,99160.97
2023-02-17T20:52:36.849Z,99162.28
2023-02-17T20:55:05.057Z,99159.25
2023-02-17T20:57:32.906Z,99180.66
2023-02-17T21:00:00.838Z,99166.16
2023-02-17T21:02:28.760Z,99170.16
2023-02-17T21:04:57.158Z,99199.47
2023-02-17T21:07:25.472Z,99187.03
2023-02-17T21:09:55.576Z,99206.50
2023-02-17T21:12:23.492Z,99223.59
2023-02-17T21:14:51.366Z,99251.28
2023-02-17T21:17:22.435Z,99238.53
2023-02-17T21:19:52.707Z,99258.59
2023-02-17T21:22:26.955Z,99264.38
2023-02-17T21:24:55.107Z,99225.50
2023-02-17T21:27:30.576Z,99244.38
2023-02-17T21:29:58.255Z,99233.16
2023-02-17T21:32:26.542Z,99235.06
2023-02-17T21:34:54.877Z,99254.28
2023-02-17T21:37:22.565Z,99253.56
2023-02-17T21:39:50.687Z,99244.44
2023-02-17T21:42:45.787Z,99238.47
2023-02-17T21:45:15.489Z,99249.25
2023-02-17T21:47:43.337Z,99236.66
2023-02-17T21:50:12.115Z,99240.22
2023-02-17T21:52:39.811Z,99238.56
2023-02-17T21:55:09.662Z,99238.66
2023-02-17T21:57:37.138Z,99230.59
2023-02-17T22:00:08.482Z,99223.38
2023-02-17T22:02:39.815Z,99244.66
2023-02-17T22:05:09.089Z,99242.91
2023-02-17T22:07:36.761Z,99252.19
2023-02-17T22:10:14.222Z,99233.63
2023-02-17T22:12:41.715Z,99234.03
2023-02-17T22:15:10.899Z,99230.56
2023-02-17T22:17:39.181Z,99254.56
2023-02-17T22:20:08.223Z,99245.47
2023-02-17T22:22:35.572Z,99233.91
2023-02-17T22:25:03.133Z,99241.44
2023-02-17T22:27:30.546Z,99229.16
2023-02-17T22:29:58.140Z,99234.16
2023-02-17T22:32:26.458Z,99224.81
2023-02-17T22:34:55.018Z,99220.31
2023-02-17T22:37:22.420Z,99222.84
2023-02-17T22:39:54.122Z,99214.91
2023-02-17T22:42:23.466Z,99213.06
2023-02-17T22:44:51.240Z,99230.59
2023-02-17T22:47:19.428Z,99239.19
2023-02-17T22:49:46.898Z,99242.09
2023-02-17T22:52:14.319Z,99237.75
2023-02-17T22:54:41.846Z,99226.53
2023-02-17T22:57:11.252Z,99223.63
2023-02-17T22:59:38.356Z,99234.03
2023-02-17T23:02:06.748Z,99215.03
2023-02-17T23:04:34.320Z,99233.84
2023-02-17T23:07:01.343Z,99225.47
2023-02-17T23:09:28.658Z,99227.06
2023-02-17T23:11:58.506Z,99210.75
2023-02-17T23:14:35.255Z,99220.56
2023-02-17T23:17:06.126Z,99211.34
2023-02-17T23:19:34.846Z,99217.03
2023-02-17T23:22:05.362Z,99203.69
2023-02-17T23:24:34.239Z,99221.25
2023-02-17T23:27:02.081Z,99214.84
2023-02-17T23:29:31.047Z,99231.78
2023-02-17T23:31:59.008Z,99243.09
2023-02-17T23:34:28.480Z,99239.50
2023-02-17T23:36:55.782Z,99278.84
2023-02-17T23:39:23.218Z,99292.03
2023-02-17T23:41:50.701Z,99303.28
2023-02-17T23:44:18.636Z,99312.25
2023-02-17T23:46:46.967Z,99323.34
2023-02-17T23:49:17.514Z,99308.41
2023-02-17T23:51:45.341Z,99323.31
2023-02-17T23:54:15.437Z,99337.22
2023-02-17T23:56:44.152Z,99331.34
2023-02-17T23:59:11.937Z,99341.28
